Vernon, Alabama
Current Conditions -  °F | °C
As of 11:58 PM on Friday 19 Dec 2014 (Local Time) from KCBM Reporting Station
Overcast Overcast  
Wind Chill: 38°   Ceiling: 6000
Heat Index: 41°   Visibility: 10mi
Dew Point: 38°   Wind: 5mph
Humidity: 90%   Direction: 30°NNE
Pressure: 30.2"   Gusts: NA
Location:  33.76°N, 88.11°W
Report Text: KCBM 200558Z AUTO 03004KT 10SM OVC060 05/04 A3020 RMK AO2 SLP230 60007 T00510036 10069 20051 400940019 58004 $
Loading
Personal Weather Stations






























Interactive Weather Map New forecast layout! Learn more

10-Day Weather Forecast

Advertisements
Track Severe Weather on mobile